Terminal Aerodrome Forecast
Issued by NWS

Home | Current Version | Previous Version | Text Only | Print | Product List | Glossary On
Versions: 1 2 3 4 5 6 7 8 9 10 11 12 13 14 15 16
000
FTUS43 KMQT 031720
TAFSAW
TAF
KSAW 031720Z 0318/0418 19010KT 1SM -SN OVC006
     FM032200 24007KT 5SM -SN OVC015
     FM040000 28012KT P6SM -SHSN BKN025
     FM040200 29010G20KT P6SM BKN035=

USA.gov is the U.S. government's official web portal to all federal, state and local government web resources and services.